• Join FlightAware (Why Join?)
  • Login
  • US Flag 
07:33AM EST


 

Airport Tracker/Info


-or-


 

Live Flight TrackerFlight Track Log ✈ AVN10 ✈ 31-Mar-2014 ✈ NVVV / VLI - YSSY / SYD

Flight Track Log - Related Links

Times and Time Zones

All times are in EDT time to prevent confusion due to time zone crossing. See the AVN10 flight status page for this flight to view local times or setup timezone preferences in your user account.

Time Position Orientation Groundspeed Altitude Reporting Facility
EDT Latitude Longitude Course Direction KTS MPH feet Rate Location/Type
04:04PM -18.0404 168.0181 220° Southwest  Level Estimated
04:05PM -18.1086 167.9577 220° Southwest  Level Estimated
04:06PM -18.1767 167.8972 220° Southwest  Level Estimated
04:07PM -18.2449 167.8366 220° Southwest  Level Estimated
04:08PM -18.3130 167.7760 220° Southwest  Level Estimated
04:09PM -18.3811 167.7153 220° Southwest  Level Estimated
04:10PM -18.4491 167.6546 220° Southwest  Level Estimated
04:11PM -18.5172 167.5939 220° Southwest  Level Estimated
04:12PM -18.5852 167.5331 220° Southwest  Level Estimated
04:13PM -18.6532 167.4722 220° Southwest  Level Estimated
04:14PM -18.7212 167.4113 220° Southwest  Level Estimated
04:15PM -18.7892 167.3504 220° Southwest  Level Estimated
04:16PM -18.8571 167.2894 220° Southwest  Level Estimated
04:17PM -18.9251 167.2283 220° Southwest  Level Estimated
04:18PM -18.9930 167.1672 220° Southwest  Level Estimated
04:19PM -19.0609 167.1060 220° Southwest  Level Estimated
04:20PM -19.1287 167.0449 220° Southwest  Level Estimated
04:21PM -19.1966 166.9836 220° Southwest  Level Estimated
04:22PM -19.2644 166.9223 220° Southwest  Level Estimated
04:23PM -19.3322 166.8610 220° Southwest  Level Estimated
04:24PM -19.4000 166.7996 221° Southwest  Level Estimated
04:25PM -19.4678 166.7381 221° Southwest  Level Estimated
04:26PM -19.5355 166.6766 221° Southwest  Level Estimated
04:27PM -19.6033 166.6151 221° Southwest  Level Estimated
04:28PM -19.6710 166.5534 221° Southwest  Level Estimated
04:29PM -19.7386 166.4918 221° Southwest  Level Estimated
04:30PM -19.8063 166.4301 221° Southwest  Level Estimated
04:31PM -19.8739 166.3683 221° Southwest  Level Estimated
04:32PM -19.9416 166.3065 221° Southwest  Level Estimated
04:33PM -20.0092 166.2446 221° Southwest  Level Estimated
04:34PM -20.0767 166.1827 221° Southwest  Level Estimated
04:35PM -20.1443 166.1207 221° Southwest  Level Estimated
04:36PM -20.2118 166.0587 221° Southwest  Level Estimated
04:37PM -20.2794 165.9966 221° Southwest  Level Estimated
04:38PM -20.3468 165.9345 221° Southwest  Level Estimated
04:39PM -20.4143 165.8723 221° Southwest  Level Estimated
04:40PM -20.4818 165.8100 221° Southwest  Level Estimated
04:41PM -20.5492 165.7477 221° Southwest  Level Estimated
04:42PM -20.6166 165.6854 221° Southwest  Level Estimated
04:43PM -20.6840 165.6230 221° Southwest  Level Estimated
04:44PM -20.7513 165.5605 221° Southwest  Level Estimated
04:45PM -20.8187 165.4980 221° Southwest  Level Estimated
04:46PM -20.8860 165.4354 221° Southwest  Level Estimated
04:47PM -20.9533 165.3728 221° Southwest  Level Estimated
04:48PM -21.0205 165.3101 221° Southwest  Level Estimated
04:49PM -21.0878 165.2473 221° Southwest  Level Estimated
04:49PM -21.3254 163.1048 234° Southwest 38,000  Level Aus ATC (Calculated)
04:50PM -21.1550 165.1845 221° Southwest  Level Estimated
04:51PM -21.4155 162.9691 234° Southwest  Level FlightAware Approximate
04:52PM -21.4629 162.8976 235° Southwest  Level FlightAware Approximate
04:52PM -21.5453 162.7731 235° Southwest 38,000  Level Aus ATC (Calculated)
04:54PM -21.6352 162.6369 235° Southwest  Level FlightAware Approximate
04:54PM -21.6779 162.5722 235° Southwest 38,000  Level Aus ATC (Calculated)
04:54PM -21.7399 162.4779 235° Southwest 38,000  Level Aus ATC (Calculated)
04:55PM -21.7251 162.5004 235° Southwest  Level FlightAware Approximate
04:56PM -21.7945 162.3949 235° Southwest  Level FlightAware Approximate
04:57PM -21.8418 162.3227 235° Southwest  Level FlightAware Approximate
04:58PM -21.8892 162.2504 235° Southwest  Level FlightAware Approximate
04:59PM -21.9365 162.1781 235° Southwest  Level FlightAware Approximate
05:00PM -21.9837 162.1057 235° Southwest  Level FlightAware Approximate
05:01PM -22.0310 162.0334 235° Southwest  Level FlightAware Approximate
05:02PM -22.0782 161.9609 235° Southwest  Level FlightAware Approximate
05:03PM -22.1254 161.8884 235° Southwest  Level FlightAware Approximate
05:04PM -22.1725 161.8159 235° Southwest  Level FlightAware Approximate
05:05PM -22.2197 161.7433 235° Southwest  Level FlightAware Approximate
05:06PM -22.2667 161.6706 235° Southwest  Level FlightAware Approximate
05:07PM -22.3138 161.5979 235° Southwest  Level FlightAware Approximate
05:08PM -22.3608 161.5252 235° Southwest  Level FlightAware Approximate
05:09PM -22.4078 161.4524 235° Southwest  Level FlightAware Approximate
05:10PM -22.4548 161.3796 235° Southwest  Level FlightAware Approximate
05:11PM -22.5017 161.3067 235° Southwest  Level FlightAware Approximate
05:12PM -22.5486 161.2337 235° Southwest  Level FlightAware Approximate
05:13PM -22.5954 161.1608 235° Southwest  Level FlightAware Approximate
05:14PM -22.6423 161.0877 235° Southwest  Level FlightAware Approximate
05:15PM -22.6890 161.0146 235° Southwest  Level FlightAware Approximate
05:16PM -22.7358 160.9415 235° Southwest  Level FlightAware Approximate
05:17PM -22.7825 160.8683 235° Southwest  Level FlightAware Approximate
05:18PM -22.8292 160.7951 235° Southwest  Level FlightAware Approximate
05:19PM -22.8759 160.7218 235° Southwest  Level FlightAware Approximate
05:20PM -22.9225 160.6484 235° Southwest  Level FlightAware Approximate
05:21PM -22.9691 160.5750 235° Southwest  Level FlightAware Approximate
05:22PM -23.0156 160.5016 235° Southwest  Level FlightAware Approximate
05:23PM -23.0622 160.4281 235° Southwest  Level FlightAware Approximate
05:24PM -23.1087 160.3546 235° Southwest  Level FlightAware Approximate
05:25PM -23.1551 160.2810 236° Southwest  Level FlightAware Approximate
05:26PM -23.2015 160.2074 236° Southwest  Level FlightAware Approximate
05:27PM -23.2479 160.1337 236° Southwest  Level FlightAware Approximate
05:28PM -23.2943 160.0599 236° Southwest  Level FlightAware Approximate
05:28PM -24.0648 158.8224 236° Southwest 38,000  Level Aus ATC (Calculated)
05:30PM -24.1431 158.6951 236° Southwest  Level FlightAware Approximate
05:31PM -24.1896 158.6195 236° Southwest  Level FlightAware Approximate
05:32PM -24.2361 158.5437 236° Southwest  Level FlightAware Approximate
05:33PM -24.2826 158.4679 236° Southwest  Level FlightAware Approximate
05:34PM -24.3290 158.3921 236° Southwest  Level FlightAware Approximate
05:35PM -24.3753 158.3162 236° Southwest  Level FlightAware Approximate
05:36PM -24.4216 158.2402 236° Southwest  Level FlightAware Approximate
05:36PM -24.6210 157.9120 236° Southwest 38,000  Level Aus ATC (Calculated)
05:38PM -24.7040 157.7746 236° Southwest  Level FlightAware Approximate
05:39PM -24.7501 157.6983 236° Southwest  Level FlightAware Approximate
05:40PM -24.7961 157.6219 236° Southwest  Level FlightAware Approximate
05:40PM -24.9133 157.4267 237° Southwest 38,000  Level Aus ATC (Calculated)
05:41PM -24.8421 157.5454 236° Southwest  Level FlightAware Approximate
05:42PM -24.9920 157.2952 237° Southwest  Level FlightAware Approximate
05:43PM -25.0378 157.2184 237° Southwest  Level FlightAware Approximate
05:43PM -25.1395 157.0477 56° Northeast 38,000  Level Aus ATC (Calculated)
05:45PM -25.1981 156.9490 237° Southwest  Level FlightAware Approximate
05:46PM -25.2437 156.8721 237° Southwest  Level FlightAware Approximate
05:46PM -25.3005 156.7762 57° Northeast 38,000  Level Aus ATC (Calculated)
05:47PM -25.3647 156.6674 57° Northeast 38,000  Level Aus ATC (Calculated)
05:49PM -25.4538 156.5161 237° Southwest  Level FlightAware Approximate
05:51PM -25.1074 157.1007 237° Southwest 401 461 38,000  Level Aus ATC (RADAR)
05:51PM -25.1332 157.0569 237° Southwest 402 463 38,000  Level Aus ATC (RADAR)
05:51PM -25.1600 157.0138 236° Southwest 402 463 38,000  Level Aus ATC (RADAR)
05:52PM -25.1942 156.9507 239° Southwest 402 463 38,000  Level Aus ATC (RADAR)
05:53PM -25.2354 156.8805 237° Southwest 403 464 38,000  Level Aus ATC (RADAR)
05:53PM -25.2728 156.8197 236° Southwest 404 465 38,000  Level Aus ATC (RADAR)
05:54PM -25.3103 156.7593 236° Southwest 403 464 38,000  Level Aus ATC (RADAR)
05:54PM -25.3470 156.6984 236° Southwest 403 464 38,000  Level Aus ATC (RADAR)
05:56PM -25.4354 156.5486 237° Southwest 405 466 38,000  Level Aus ATC (RADAR)
05:56PM -25.4616 156.5047 237° Southwest 405 466 38,000  Level Aus ATC (RADAR)
05:57PM -25.4871 156.4603 238° Southwest 404 465 38,000  Level Aus ATC (RADAR)
05:57PM -25.4956 156.4448 237° Southwest 413 475 38,000  Level FlightAware ADS-B
05:57PM -25.5234 156.3983 237° Southwest 406 467 38,000  Level Aus ATC (RADAR)
05:57PM -25.5372 156.3741 237° Southwest 413 475 38,000 240 Level FlightAware ADS-B
05:58PM -25.5696 156.3184 237° Southwest 405 466 38,200  Climbing Aus ATC (RADAR)
05:58PM -25.5431 156.3638 237° Southwest 413 475 38,000  Descending FlightAware ADS-B (EKCH / CPH)
05:59PM -25.6410 156.1927 237° Southwest 407 468 38,200  Climbing Aus ATC (RADAR)
05:59PM -25.6530 156.1758 237° Southwest 415 478 38,000 -240 Descending FlightAware ADS-B (EKCH / CPH)
06:00PM -25.7034 156.0894 237° Southwest 414 476 38,000  Level FlightAware ADS-B (EKCH / CPH)
06:01PM -25.7663 156.0033 229° Southwest 415 478 38,000 120 Level FlightAware ADS-B (EKCH / CPH)
06:02PM -25.8063 155.9473 229° Southwest 409 471 38,200  Climbing Aus ATC (RADAR)
06:02PM -25.8126 155.9440 229° Southwest 414 476 38,000 -300 Descending FlightAware ADS-B (EKCH / CPH)
06:02PM -25.8661 155.8752 229° Southwest 414 476 38,000  Level FlightAware ADS-B (EKCH / CPH)
06:03PM -25.9138 155.8140 229° Southwest 416 479 38,000  Level FlightAware ADS-B (EKCH / CPH)
06:04PM -25.9681 155.7443 229° Southwest 416 479 38,000  Level FlightAware ADS-B (EKCH / CPH)
06:04PM -26.0072 155.6938 229° Southwest 417 480 38,000  Level FlightAware ADS-B (EKCH / CPH)
06:05PM -26.0527 155.6352 230° Southwest 417 480 38,000  Level FlightAware ADS-B (EKCH / CPH)
06:05PM -26.0913 155.5853 230° Southwest 417 480 38,000  Level FlightAware ADS-B (EKCH / CPH)
06:06PM -26.1415 155.5204 230° Southwest 417 480 38,000  Level FlightAware ADS-B (EKCH / CPH)
06:06PM -26.1794 155.4712 230° Southwest 417 480 38,000  Level FlightAware ADS-B (EKCH / CPH)
06:07PM -26.2180 155.4213 229° Southwest 418 481 38,000  Level FlightAware ADS-B (EKCH / CPH)
06:07PM -26.2543 155.3742 230° Southwest 418 481 38,000  Level FlightAware ADS-B (EKCH / CPH)
06:08PM -26.3057 155.3074 230° Southwest 417 480 38,000  Level FlightAware ADS-B (EKCH / CPH)
06:09PM -26.3405 155.2622 230° Southwest 417 480 38,000  Level FlightAware ADS-B (EKCH / CPH)
06:09PM -26.3809 155.2097 230° Southwest 416 479 38,000  Level FlightAware ADS-B (EKCH / CPH)
06:10PM -26.4240 155.1533 230° Southwest 416 479 38,000  Level FlightAware ADS-B
06:10PM -26.4803 155.0799 230° Southwest 416 479 38,000  Level FlightAware ADS-B (EKCH / CPH)
06:11PM -26.5187 155.0298 230° Southwest 416 479 38,000  Level FlightAware ADS-B (EKCH / CPH)
06:12PM -26.5671 154.9664 230° Southwest 416 479 38,000  Level FlightAware ADS-B (EKCH / CPH)
06:12PM -26.6057 154.9157 230° Southwest 417 480 38,000  Level FlightAware ADS-B (EKCH / CPH)
06:13PM -26.6363 154.8769 222° Southwest 416 479 38,000  Level FlightAware ADS-B
06:13PM -26.7014 154.8106 222° Southwest 417 480 38,000  Level FlightAware ADS-B (EKCH / CPH)
06:14PM -26.7446 154.7669 222° Southwest 417 480 38,000  Level FlightAware ADS-B (EKCH / CPH)
06:14PM -26.7876 154.7235 222° Southwest 418 481 38,000  Level FlightAware ADS-B (EKCH / CPH)
06:15PM -26.8301 154.6806 222° Southwest 418 481 38,000  Level FlightAware ADS-B
06:15PM -26.8448 154.6658 222° Southwest 420 483 38,000  Level FlightAware ADS-B
06:16PM -26.9314 154.5782 222° Southwest 421 484 38,000  Level FlightAware ADS-B (EKCH / CPH)
06:16PM -26.9475 154.5618 223° Southwest 415 478 38,000  Level FlightAware ADS-B (YTWB)
06:16PM -26.9580 154.5512 223° Southwest 416 479 38,000  Level FlightAware ADS-B (YTWB)
06:16PM -26.9730 154.5360 223° Southwest 416 479 38,000  Level FlightAware ADS-B (YTWB)
06:17PM -26.9898 154.5190 223° Southwest 416 479 38,000  Level FlightAware ADS-B (YTWB)
06:17PM -27.0182 154.4900 223° Southwest 416 479 38,000  Level FlightAware ADS-B (YTWB)
06:17PM -27.0611 154.4465 222° Southwest 422 486 38,000  Level FlightAware ADS-B (EKCH / CPH)
06:18PM -27.0677 154.4397 223° Southwest 417 480 38,000  Level FlightAware ADS-B (YTWB)
06:18PM -27.1061 154.4007 223° Southwest 416 479 38,000  Level FlightAware ADS-B (YTWB)
06:19PM -27.1632 154.3424 222° Southwest 421 484 38,000 120 Level FlightAware ADS-B (EKCH / CPH)
06:19PM -27.2097 154.2956 222° Southwest 419 482 38,200  Climbing Aus ATC (RADAR)
06:19PM -27.2200 154.2844 222° Southwest 421 484 38,000 -360 Descending FlightAware ADS-B (EKCH / CPH)
06:20PM -27.2627 154.2408 222° Southwest 420 483 38,000  Level FlightAware ADS-B (EKCH / CPH)
06:20PM -27.3064 154.1961 222° Southwest 418 481 38,000  Level FlightAware ADS-B (EKCH / CPH)
06:21PM -27.3455 154.1561 222° Southwest 418 481 38,000  Level FlightAware ADS-B (EKCH / CPH)
06:21PM -27.3960 154.1044 223° Southwest 418 481 38,000  Level FlightAware ADS-B (YTWB)
06:22PM -27.4390 154.0603 223° Southwest 417 480 38,000  Level FlightAware ADS-B (YTWB)
06:22PM -27.4807 154.0174 223° Southwest 417 480 38,000  Level FlightAware ADS-B (YTWB)
06:23PM -27.5240 153.9729 223° Southwest 417 480 38,000  Level FlightAware ADS-B (YTWB)
06:23PM -27.5671 153.9285 223° Southwest 418 481 38,000  Level FlightAware ADS-B (YTWB)
06:24PM -27.6180 153.8758 223° Southwest 418 481 38,000  Level FlightAware ADS-B (EKCH / CPH)
06:25PM -27.6678 153.8244 223° Southwest 418 481 38,000  Level FlightAware ADS-B (YTWB)
06:25PM -27.7106 153.7802 223° Southwest 418 481 38,000  Level FlightAware ADS-B (YTWB)
06:26PM -27.7636 153.7255 223° Southwest 419 482 38,000  Level FlightAware ADS-B (EKCH / CPH)
06:26PM -27.8048 153.6828 223° Southwest 420 483 38,000  Level FlightAware ADS-B (EKCH / CPH)
06:27PM -27.8489 153.6371 223° Southwest 420 483 38,000  Level FlightAware ADS-B (EKCH / CPH)
06:27PM -27.8882 153.5963 223° Southwest 420 483 38,000  Level FlightAware ADS-B (EKCH / CPH)
06:28PM -27.9315 153.5512 223° Southwest 420 483 38,000  Level FlightAware ADS-B (EKCH / CPH)
06:28PM -27.9770 153.5039 223° Southwest 420 483 38,000  Level FlightAware ADS-B (EKCH / CPH)
06:29PM -28.0205 153.4585 223° Southwest 420 483 38,000  Level FlightAware ADS-B (EKCH / CPH)
06:29PM -28.0607 153.4166 223° Southwest 420 483 38,000  Level FlightAware ADS-B
06:30PM -28.1034 153.3719 223° Southwest 420 483 38,000  Level FlightAware ADS-B (EKCH / CPH)
06:30PM -28.1473 153.3260 223° Southwest 419 482 38,000  Level FlightAware ADS-B (EKCH / CPH)
06:31PM -28.1917 153.2796 223° Southwest 419 482 38,000  Level FlightAware ADS-B (EKCH / CPH)
06:31PM -28.2336 153.2357 223° Southwest 419 482 38,000  Level FlightAware ADS-B (EKCH / CPH)
06:32PM -28.2762 153.1910 223° Southwest 419 482 38,000  Level FlightAware ADS-B (EKCH / CPH)
06:32PM -28.3187 153.1464 223° Southwest 419 482 38,000  Level FlightAware ADS-B (EKCH / CPH)
06:33PM -28.3602 153.1028 223° Southwest 419 482 38,000  Level FlightAware ADS-B (EKCH / CPH)
06:33PM -28.4040 153.0567 223° Southwest 420 483 38,000  Level FlightAware ADS-B (EKCH / CPH)
06:34PM -28.4457 153.0127 223° Southwest 419 482 38,000  Level FlightAware ADS-B (EKCH / CPH)
06:34PM -28.4863 152.9699 223° Southwest 420 483 38,000  Level FlightAware ADS-B (EKCH / CPH)
06:35PM -28.5318 152.9219 223° Southwest 420 483 38,000  Level FlightAware ADS-B (EKCH / CPH)
06:35PM -28.5723 152.8791 223° Southwest 420 483 38,000  Level FlightAware ADS-B (EKCH / CPH)
06:36PM -28.6152 152.8336 223° Southwest 420 483 38,000  Level FlightAware ADS-B (EKCH / CPH)
06:36PM -28.6599 152.7863 223° Southwest 421 484 38,000  Level FlightAware ADS-B (EKCH / CPH)
06:37PM -28.7028 152.7408 223° Southwest 420 483 38,000  Level FlightAware ADS-B (EKCH / CPH)
06:37PM -28.7578 152.6823 223° Southwest 420 483 38,000  Level FlightAware ADS-B (YTWB)
06:38PM -28.8010 152.6362 223° Southwest 422 486 38,000  Level FlightAware ADS-B (YTWB)
06:38PM -28.8470 152.5922 214° Southwest 423 487 38,000  Level FlightAware ADS-B (EKCH / CPH)
06:39PM -28.8955 152.5642 202° Southwest 419 482 38,000  Level FlightAware ADS-B (YTWB)
06:39PM -28.9522 152.5386 202° Southwest 426 490 38,000  Level FlightAware ADS-B (EKCH / CPH)
06:40PM -29.0073 152.5137 202° Southwest 427 491 38,000 180 Level FlightAware ADS-B (EKCH / CPH)
06:40PM -29.0666 152.4865 202° Southwest 425 489 38,200  Climbing Aus ATC (RADAR)
06:40PM -29.0823 152.4798 202° Southwest 427 491 38,000 -240 Descending FlightAware ADS-B (EKCH / CPH)
06:41PM -29.1512 152.4486 202° Southwest 426 490 38,000  Level FlightAware ADS-B (EKCH / CPH)
06:42PM -29.2110 152.4216 202° Southwest 425 489 38,000  Level FlightAware ADS-B (EKCH / CPH)
06:42PM -29.2650 152.3971 202° Southwest 425 489 38,000  Level FlightAware ADS-B (EKCH / CPH)
06:43PM -29.3212 152.3716 202° Southwest 424 488 38,000  Level FlightAware ADS-B (EKCH / CPH)
06:43PM -29.3749 152.3471 202° Southwest 423 487 38,000  Level FlightAware ADS-B (EKCH / CPH)
06:44PM -29.4278 152.3231 202° Southwest 422 486 38,000  Level FlightAware ADS-B (EKCH / CPH)
06:44PM -29.4852 152.2970 202° Southwest 421 484 38,000  Level FlightAware ADS-B (EKCH / CPH)
06:45PM -29.5389 152.2724 202° Southwest 420 483 38,000  Level FlightAware ADS-B (EKCH / CPH)
06:45PM -29.6116 152.2393 202° Southwest 419 482 38,000  Level FlightAware ADS-B (EKCH / CPH)
06:46PM -29.6833 152.2065 202° Southwest 419 482 38,000  Level FlightAware ADS-B (EKCH / CPH)
06:46PM -29.7356 152.1826 202° Southwest 418 481 38,000  Level FlightAware ADS-B (EKCH / CPH)
06:47PM -29.8082 152.1492 202° Southwest 418 481 38,000  Level FlightAware ADS-B (EKCH / CPH)
06:48PM -29.8731 152.1194 202° Southwest 418 481 38,000 60 Level FlightAware ADS-B (EKCH / CPH)
06:49PM -29.9969 152.0615 202° Southwest 417 480 38,200  Climbing Aus ATC (RADAR)
06:49PM -30.0299 152.0472 202° Southwest 419 482 38,000 -240 Descending FlightAware ADS-B (EKCH / CPH)
06:50PM -30.0970 152.0163 202° Southwest 419 482 38,000 120 Level FlightAware ADS-B (EKCH / CPH)
06:51PM -30.2037 151.9654 202° Southwest 421 484 38,200 60 Climbing Aus ATC (RADAR)
06:52PM -30.3756 151.8862 202° Southwest 422 486 38,200  Level Aus ATC (RADAR)
06:53PM -30.4208 151.8653 202° Southwest 422 486 38,200  Level Aus ATC (RADAR)
06:53PM -30.4841 151.8360 202° Southwest 422 486 38,200 -180 Level Aus ATC (RADAR)
06:54PM -30.5442 151.8087 202° Southwest 420 483 38,000 -240 Descending FlightAware ADS-B (EKCH / CPH)
06:54PM -30.6022 151.7818 202° Southwest 419 482 38,000 120 Level FlightAware ADS-B (EKCH / CPH)
06:56PM -30.7174 151.7274 202° Southwest 416 479 38,200 120 Climbing Aus ATC (RADAR)
06:56PM -30.7621 151.7066 202° Southwest 416 479 38,200 -420 Level Aus ATC (RADAR)
06:56PM -30.7746 151.7012 201° Southwest 415 478 38,000 -360 Descending FlightAware ADS-B (YPLB)
06:57PM -30.8152 151.6821 202° Southwest 414 476 38,000  Level FlightAware ADS-B (YPLB)
06:57PM -30.9009 151.6419 202° Southwest 413 475 38,000  Level FlightAware ADS-B (YPLB)
06:58PM -30.9553 151.6163 202° Southwest 412 474 38,000 120 Level FlightAware ADS-B (YPLB)
06:58PM -31.0190 151.5860 202° Southwest 410 472 38,200  Climbing Aus ATC (RADAR)
06:59PM -31.0437 151.5747 202° Southwest 410 472 38,000  Descending FlightAware ADS-B (YPLB)
06:59PM -31.1067 151.5441 202° Southwest 410 472 38,200  Climbing Aus ATC (RADAR)
06:59PM -31.1118 151.5425 202° Southwest 409 471 38,000  Descending FlightAware ADS-B (YPLB)
07:00PM -31.1680 151.5154 202° Southwest 408 470 38,200  Climbing Aus ATC (RADAR)
07:00PM -31.1831 151.5087 202° Southwest 409 471 38,000 -360 Descending FlightAware ADS-B (YPLB)
07:00PM -31.2381 151.4826 202° Southwest 408 470 38,000 120 Level FlightAware ADS-B (YPLB)
07:01PM -31.2996 151.4540 202° Southwest 408 470 38,200  Climbing Aus ATC (RADAR)
07:01PM -31.3031 151.4518 202° Southwest 406 467 38,000 -420 Descending FlightAware ADS-B (YPLB)
07:02PM -31.3551 151.4272 202° Southwest 405 466 38,000  Level FlightAware ADS-B (YPLB)
07:02PM -31.4085 151.4020 201° Southwest 405 466 38,000  Level FlightAware ADS-B (YPLB)
07:03PM -31.4617 151.3785 200° South 406 467 38,000  Level FlightAware ADS-B (YPLB)
07:03PM -31.5173 151.3540 200° South 405 466 38,000  Level FlightAware ADS-B (YPLB)
07:04PM -31.5882 151.3223 201° Southwest 406 467 38,000  Level FlightAware ADS-B (YPLB)
07:04PM -31.6518 151.2936 201° Southwest 406 467 38,000  Level FlightAware ADS-B (YPLB)
07:05PM -31.7086 151.2681 201° Southwest 407 468 38,000  Level FlightAware ADS-B (YPLB)
07:05PM -31.7623 151.2442 201° Southwest 408 470 38,000  Level FlightAware ADS-B (YPLB)
07:06PM -31.8334 151.2122 201° Southwest 408 470 38,000  Level FlightAware ADS-B (YPLB)
07:07PM -31.8986 151.1829 201° Southwest 408 470 38,000  Level FlightAware ADS-B (YPLB)
07:07PM -31.9554 151.1571 201° Southwest 408 470 38,000  Level FlightAware ADS-B (YPLB)
07:08PM -32.0270 151.1250 200° South 408 470 38,000 240 Level FlightAware ADS-B (YPLB)
07:08PM -32.0209 151.1270 201° Southwest 406 467 38,200 300 Climbing Aus ATC (RADAR)
07:08PM -32.0826 151.0996 200° South 404 465 38,200 -960 Level Aus ATC (RADAR)
07:09PM -32.0960 151.0941 201° Southwest 402 463 37,600 -3,120 Descending FlightAware ADS-B (YPLB)
07:09PM -32.1488 151.0703 201° Southwest 399 459 36,400 -2,760 Descending FlightAware ADS-B (YPLB)
07:10PM -32.2137 151.0412 200° South 403 464 34,500 -3,180 Descending FlightAware ADS-B (YPLB)
07:10PM -32.2683 151.0169 200° South 407 468 32,800 -2,820 Descending FlightAware ADS-B (YPLB)
07:11PM -32.3233 150.9922 201° Southwest 402 463 31,600 -2,400 Descending FlightAware ADS-B (YPLB)
07:11PM -32.3900 150.9615 201° Southwest 391 450 30,000 -2,340 Descending FlightAware ADS-B (YPLB)
07:12PM -32.4411 150.9384 201° Southwest 384 442 28,900 -2,220 Descending FlightAware ADS-B (YPLB)
07:12PM -32.4934 150.9190 189° South 381 438 27,800 -2,340 Descending FlightAware ADS-B (YPLB)
07:13PM -32.5264 150.9175 177° South 384 442 27,000 -2,400 Descending FlightAware ADS-B (YPLB)
07:13PM -32.5790 150.9262 171° South 381 438 25,900 -2,340 Descending FlightAware ADS-B (YPLB)
07:14PM -32.6315 150.9356 171° South 374 430 24,700 -2,280 Descending FlightAware ADS-B (YPLB)
07:14PM -32.6835 150.9451 171° South 365 420 23,600 -2,220 Descending FlightAware ADS-B (YPLB)
07:15PM -32.7331 150.9540 171° South 359 413 22,500 -2,220 Descending FlightAware ADS-B (YPLB)
07:15PM -32.7958 150.9649 171° South 350 403 21,100 -1,920 Descending FlightAware ADS-B (YPLB)
07:16PM -32.8616 150.9765 171° South 337 388 19,900 -2,100 Descending Aus ATC (RADAR)
07:16PM -32.8937 150.9824 171° South 340 391 19,000 -2,400 Descending FlightAware ADS-B (YPLB)
07:17PM -32.9545 150.9933 171° South 334 384 17,600 -1,740 Descending FlightAware ADS-B (YPLB)
07:18PM -33.0095 151.0036 171° South 332 382 16,700 -1,860 Descending Aus ATC (RADAR)
07:18PM -33.0154 151.0043 172° South 330 380 16,300 -2,580 Descending FlightAware ADS-B (YRAY)
07:18PM -33.0612 151.0125 172° South 328 377 15,300 -2,160 Descending FlightAware ADS-B (YRAY)
07:18PM -33.0756 151.0150 171° South 327 376 15,000 -2,100 Descending FlightAware ADS-B (YPLB)
07:19PM -33.1222 151.0233 171° South 328 377 13,900 -2,040 Descending FlightAware ADS-B (YRAY)
07:19PM -33.1510 151.0284 171° South 328 377 13,300 -1,920 Descending FlightAware ADS-B (YPLB)
07:20PM -33.1970 151.0367 171° South 326 375 12,300 -1,800 Descending FlightAware ADS-B (YRAY)
07:20PM -33.2525 151.0467 171° South 308 354 11,200 -1,740 Descending FlightAware ADS-B (YRAY)
07:21PM -33.2685 151.0498 170° South 312 359 11,000 -1,620 Descending FlightAware ADS-B (YPLB)
07:21PM -33.2836 151.0527 170° South 312 359 10,700 -1,380 Descending FlightAware ADS-B (YPLB)
07:21PM -33.3126 151.0584 170° South 305 351 10,300 -1,020 Descending FlightAware ADS-B (YPLB)
07:21PM -33.3261 151.0609 170° South 295 339 10,200 -660 Descending FlightAware ADS-B (YPLB)
07:21PM -33.3372 151.0630 170° South 289 333 10,100 -900 Descending FlightAware ADS-B (YPLB)
07:22PM -33.3524 151.0659 170° South 285 328 9,900 -1,500 Descending FlightAware ADS-B (YPLB)
07:22PM -33.3722 151.0696 171° South 284 327 9,400 -1,500 Descending FlightAware ADS-B (YRAY)
07:22PM -33.4011 151.0752 171° South 281 323 8,900 -1,560 Descending FlightAware ADS-B (YRAY)
07:22PM -33.4160 151.0781 170° South 279 321 8,600 -1,620 Descending FlightAware ADS-B (YPLB)
07:23PM -33.4262 151.0797 175° South 279 321 8,400 -1,380 Descending FlightAware ADS-B (YRAY)
07:23PM -33.4410 151.0788 186° South 276 318 8,100 -1,440 Descending FlightAware ADS-B (YRAY)
07:23PM -33.4634 151.0759 186° South 275 316 7,700 -1,200 Descending FlightAware ADS-B (YRAY)
07:23PM -33.4826 151.0738 183° South 275 316 7,500 -1,140 Descending FlightAware ADS-B (YPLB)
07:23PM -33.4937 151.0732 182° South 276 318 7,300 -1,080 Descending FlightAware ADS-B (YPLB)
07:24PM -33.4995 151.0731 181° South 276 318 7,200 -1,080 Descending FlightAware ADS-B (YRAY)
07:24PM -33.5270 151.0762 170° South 275 316 6,800 -1,260 Descending FlightAware ADS-B (YRAY)
07:24PM -33.5316 151.0774 166° South 267 307 6,700 -1,620 Descending FlightAware ADS-B (YRAY)
07:24PM -33.5508 151.0832 164° South 274 315 6,300 -1,320 Descending FlightAware ADS-B (YRAY)
07:25PM -33.5763 151.0923 164° South 273 314 5,900 -1,380 Descending FlightAware ADS-B (YRAY)
07:25PM -33.5991 151.0992 167° South 272 313 5,400 -1,560 Descending FlightAware ADS-B (YRAY)
07:25PM -33.6191 151.1040 169° South 264 304 5,000 -1,380 Descending FlightAware ADS-B (YRAY)
07:25PM -33.6290 151.1061 169° South 269 310 4,900 -840 Descending FlightAware ADS-B (YPLB)
07:25PM -33.6418 151.1088 169° South 263 303 4,800 -540 Descending FlightAware ADS-B (YPLB)
07:26PM -33.6550 151.1119 168° South 249 287 4,700 -600 Descending FlightAware ADS-B (YRAY)
07:26PM -33.6685 151.1153 168° South 249 287 4,500 -600 Descending FlightAware ADS-B (YRAY)
07:26PM -33.6893 151.1208 167° South 233 268 4,400 -540 Descending FlightAware ADS-B (YRAY)
07:26PM -33.7101 151.1265 168° South 230 265 4,200 -660 Descending FlightAware ADS-B (YRAY)
07:27PM -33.7301 151.1315 168° South 221 254 4,000 -840 Descending FlightAware ADS-B (YPLB)
07:27PM -33.7466 151.1356 168° South 201 231 3,700 -960 Descending FlightAware ADS-B (YRAY)
07:27PM -33.7653 151.1405 168° South 202 232 3,400 -900 Descending FlightAware ADS-B (YRAY)
07:28PM -33.7853 151.1457 167° South 195 224 3,100 -1,080 Descending FlightAware ADS-B (YPLB)
07:28PM -33.8019 151.1500 167° South 191 220 2,700 -1,020 Descending FlightAware ADS-B (YPLB)
07:28PM -33.8191 151.1545 168° South 180 207 2,400 -900 Descending FlightAware ADS-B (YRAY)
07:29PM -33.8358 151.1588 168° South 184 212 2,100 -1,080 Descending FlightAware ADS-B (YRAY)
07:29PM -33.8518 151.1630 167° South 182 209 1,700 -1,140 Descending FlightAware ADS-B (YRAY)
07:29PM -33.8597 151.1650 168° South 177 204 1,600 -900 Descending FlightAware ADS-B (YPLB)
07:30PM -33.8726 151.1684 168° South 170 196 1,300 -840 Descending FlightAware ADS-B (YRAY)
07:30PM -33.8910 151.1731 168° South 149 171 1,000 -840 Descending FlightAware ADS-B (YRAY)
07:30PM -33.9043 151.1765 167° South 136 157 700 -780 Descending FlightAware ADS-B (YRAY)
07:31PM -33.9173 151.1799 167° South 133 153 500 -780 Descending FlightAware ADS-B (YRAY)
07:31PM -33.9298 151.1832 167° South 135 155 200 -960 Descending FlightAware ADS-B (YRAY)
07:31PM -33.9492 151.1882 167° South 136 157 -420 Descending FlightAware ADS-B (YRAY)